createdAt,value
2023-05-14T04:27:44.990Z,50.74
2023-05-14T04:30:12.021Z,50.72
2023-05-14T04:32:38.778Z,50.74
2023-05-14T04:35:05.935Z,50.73
2023-05-14T04:37:32.626Z,51.49
2023-05-14T04:39:59.382Z,51.41
2023-05-14T04:42:26.151Z,52.27
2023-05-14T04:44:52.921Z,52.67
2023-05-14T04:47:19.707Z,52.56
2023-05-14T04:49:46.444Z,53.21
2023-05-14T04:52:13.207Z,53.01
2023-05-14T04:54:40.022Z,52.85
2023-05-14T04:57:07.167Z,52.53
2023-05-14T04:59:33.930Z,52.87
2023-05-14T05:02:00.759Z,53.27
2023-05-14T05:04:27.696Z,53.05
2023-05-14T05:06:54.485Z,53.33
2023-05-14T05:09:21.189Z,53.07
2023-05-14T05:11:47.922Z,52.67
2023-05-14T05:14:14.677Z,52.87
2023-05-14T05:16:41.474Z,52.39
2023-05-14T05:19:08.442Z,52.48
2023-05-14T05:21:35.394Z,52.83
2023-05-14T05:24:02.118Z,52.87
2023-05-14T05:26:28.884Z,52.54
2023-05-14T05:28:55.598Z,52.50
2023-05-14T05:31:22.532Z,52.21
2023-05-14T05:33:49.285Z,52.47
2023-05-14T05:36:16.097Z,52.23
2023-05-14T05:38:42.807Z,52.26
2023-05-14T05:41:09.478Z,52.13
2023-05-14T05:43:36.172Z,52.21
2023-05-14T05:46:02.914Z,51.69
2023-05-14T05:48:29.763Z,51.92
2023-05-14T05:50:56.513Z,51.95
2023-05-14T05:53:23.320Z,52.14
2023-05-14T05:55:50.008Z,51.64
2023-05-14T05:58:16.684Z,51.96
2023-05-14T06:00:43.378Z,51.75
2023-05-14T06:03:10.802Z,51.78
2023-05-14T06:05:37.639Z,51.52
2023-05-14T06:08:04.806Z,51.52
2023-05-14T06:10:31.531Z,51.87
2023-05-14T06:12:58.366Z,51.35
2023-05-14T06:15:25.155Z,51.36
2023-05-14T06:17:51.963Z,51.45
2023-05-14T06:20:19.124Z,51.12
2023-05-14T06:22:45.901Z,51.27
2023-05-14T06:25:12.577Z,51.40
2023-05-14T06:27:39.328Z,51.02
2023-05-14T06:30:06.665Z,50.96
2023-05-14T06:32:33.503Z,50.79
2023-05-14T06:35:00.296Z,50.66
2023-05-14T06:37:27.050Z,50.80
2023-05-14T06:39:54.704Z,51.03
2023-05-14T06:42:22.446Z,50.84
2023-05-14T06:44:49.117Z,50.83
2023-05-14T06:47:15.932Z,50.53
2023-05-14T06:49:42.635Z,50.78
2023-05-14T06:52:09.399Z,50.47
2023-05-14T06:54:36.207Z,50.89
2023-05-14T06:57:02.939Z,50.33
2023-05-14T06:59:29.970Z,50.63
2023-05-14T07:01:56.845Z,50.22
2023-05-14T07:04:23.710Z,50.32
2023-05-14T07:06:50.488Z,50.21
2023-05-14T07:09:17.254Z,50.26
2023-05-14T07:11:43.958Z,49.97
2023-05-14T07:14:10.677Z,50.48
2023-05-14T07:16:37.464Z,50.38
2023-05-14T07:19:04.287Z,49.82
2023-05-14T07:21:31.107Z,49.71
2023-05-14T07:23:57.892Z,50.12
2023-05-14T07:26:24.637Z,49.42
2023-05-14T07:28:51.391Z,49.90
2023-05-14T07:31:18.251Z,50.15
2023-05-14T07:33:45.006Z,49.94
2023-05-14T07:36:11.848Z,49.93
2023-05-14T07:38:38.656Z,49.44
2023-05-14T07:41:05.543Z,49.78
2023-05-14T07:43:32.318Z,49.95
2023-05-14T07:45:59.133Z,49.71
2023-05-14T07:48:25.985Z,49.33
2023-05-14T07:50:52.779Z,49.54
2023-05-14T07:53:19.614Z,49.81
2023-05-14T07:55:46.338Z,49.55
2023-05-14T07:58:13.146Z,49.60
2023-05-14T08:00:39.865Z,49.65
2023-05-14T08:03:06.815Z,49.60
2023-05-14T08:05:33.619Z,49.69
2023-05-14T08:08:00.452Z,50.44
2023-05-14T08:10:27.581Z,50.39
2023-05-14T08:12:54.641Z,50.18
2023-05-14T08:15:21.488Z,49.95
2023-05-14T08:17:48.279Z,49.78
2023-05-14T08:20:15.124Z,50.23
2023-05-14T08:22:42.194Z,49.74
2023-05-14T08:25:09.155Z,50.42
2023-05-14T08:27:35.916Z,50.46
2023-05-14T08:30:02.813Z,50.16
2023-05-14T08:32:29.718Z,49.59
2023-05-14T08:34:56.473Z,50.12
2023-05-14T08:37:23.272Z,49.85
2023-05-14T08:39:50.228Z,49.92
2023-05-14T08:42:16.956Z,49.82
2023-05-14T08:44:50.278Z,49.89
2023-05-14T08:47:18.416Z,49.77
2023-05-14T08:49:47.301Z,49.77
2023-05-14T08:52:14.240Z,49.88
2023-05-14T08:54:40.981Z,49.47
2023-05-14T08:57:10.759Z,49.16
2023-05-14T08:59:37.808Z,49.12
2023-05-14T09:02:05.517Z,49.45
2023-05-14T09:04:32.619Z,49.42
2023-05-14T09:07:00.443Z,49.31
2023-05-14T09:09:27.605Z,49.15
2023-05-14T09:11:54.461Z,49.39
2023-05-14T09:14:22.358Z,49.68
2023-05-14T09:16:49.802Z,50.69
2023-05-14T09:19:16.987Z,52.18
2023-05-14T09:21:43.903Z,53.27
2023-05-14T09:24:10.590Z,53.65
2023-05-14T09:26:37.488Z,53.79
2023-05-14T09:29:04.417Z,53.62
2023-05-14T09:31:32.250Z,53.51
2023-05-14T09:33:59.348Z,53.52
2023-05-14T09:36:26.368Z,53.79
2023-05-14T09:38:56.259Z,53.20
2023-05-14T09:41:23.018Z,53.32
2023-05-14T09:43:50.971Z,53.47
2023-05-14T09:46:17.800Z,53.40
2023-05-14T09:48:45.954Z,53.71
2023-05-14T09:51:13.215Z,53.91
2023-05-14T09:53:39.969Z,53.70
2023-05-14T09:56:06.985Z,53.13
2023-05-14T09:58:33.693Z,53.15
2023-05-14T10:01:01.075Z,53.01
2023-05-14T10:03:27.835Z,52.70
2023-05-14T10:05:54.580Z,52.84
2023-05-14T10:08:27.779Z,53.21
2023-05-14T10:10:54.941Z,52.90
2023-05-14T10:13:24.020Z,53.19
2023-05-14T10:15:57.779Z,52.57
2023-05-14T10:18:24.531Z,53.20
2023-05-14T10:21:00.959Z,52.88
2023-05-14T10:23:27.788Z,52.70
2023-05-14T10:25:54.512Z,52.37
2023-05-14T10:28:21.289Z,52.60
2023-05-14T10:30:48.115Z,52.64
2023-05-14T10:33:15.312Z,52.68
2023-05-14T10:35:51.849Z,52.19
2023-05-14T10:38:22.739Z,51.87
2023-05-14T10:40:50.702Z,51.92
2023-05-14T10:43:18.392Z,51.54
2023-05-14T10:45:45.480Z,51.36
2023-05-14T10:48:12.251Z,51.59
2023-05-14T10:50:39.037Z,51.81
2023-05-14T10:53:05.791Z,52.40
2023-05-14T10:55:32.523Z,52.47
2023-05-14T10:57:59.315Z,54.29
2023-05-14T11:00:26.202Z,55.56
2023-05-14T11:02:53.108Z,55.30
2023-05-14T11:05:19.861Z,56.78
2023-05-14T11:07:48.480Z,56.80
2023-05-14T11:10:19.389Z,56.76
2023-05-14T11:12:50.020Z,56.17
2023-05-14T11:15:18.134Z,56.02
2023-05-14T11:17:45.541Z,55.50
2023-05-14T11:20:12.681Z,55.81
2023-05-14T11:22:40.110Z,55.60
2023-05-14T11:25:07.524Z,55.53
2023-05-14T11:27:35.255Z,55.77
2023-05-14T11:30:02.118Z,55.38
2023-05-14T11:32:28.850Z,54.75
2023-05-14T11:34:55.586Z,54.60
2023-05-14T11:37:22.292Z,54.92
2023-05-14T11:39:49.603Z,54.50
2023-05-14T11:42:16.425Z,54.29
2023-05-14T11:44:43.150Z,53.67
2023-05-14T11:47:10.272Z,53.71
2023-05-14T11:49:37.182Z,53.53
2023-05-14T11:52:05.428Z,53.34
2023-05-14T11:54:33.223Z,53.40
2023-05-14T11:57:01.505Z,53.63
2023-05-14T11:59:28.788Z,53.56
2023-05-14T12:01:55.527Z,53.48
2023-05-14T12:04:22.324Z,53.39
2023-05-14T12:06:49.833Z,53.51
2023-05-14T12:09:20.113Z,53.28
2023-05-14T12:11:47.672Z,53.29
2023-05-14T12:14:19.988Z,53.17
2023-05-14T12:16:49.468Z,53.21
2023-05-14T12:19:19.692Z,52.76
2023-05-14T12:21:47.668Z,52.95
2023-05-14T12:24:16.038Z,53.06
2023-05-14T12:26:50.874Z,52.97
2023-05-14T12:29:18.843Z,52.64
2023-05-14T12:31:49.598Z,52.36
2023-05-14T12:34:16.753Z,52.37
2023-05-14T12:36:43.721Z,52.42
2023-05-14T12:39:10.968Z,51.94
2023-05-14T12:41:37.707Z,51.95
2023-05-14T12:44:04.868Z,51.79
2023-05-14T12:46:31.696Z,51.50
2023-05-14T12:48:58.512Z,51.56
2023-05-14T12:51:25.343Z,51.36
2023-05-14T12:53:52.102Z,51.28
2023-05-14T12:56:18.909Z,51.41
2023-05-14T12:58:45.728Z,51.19
2023-05-14T13:01:12.661Z,51.24
2023-05-14T13:03:39.483Z,51.09
2023-05-14T13:06:06.341Z,51.10
2023-05-14T13:08:33.066Z,50.38
2023-05-14T13:10:59.877Z,49.91
2023-05-14T13:13:26.663Z,49.81
2023-05-14T13:15:53.439Z,50.48
2023-05-14T13:18:20.236Z,50.46
2023-05-14T13:20:47.071Z,50.38
2023-05-14T13:23:14.374Z,50.22
2023-05-14T13:25:41.112Z,50.22
2023-05-14T13:28:08.611Z,49.90
2023-05-14T13:30:35.400Z,50.39
2023-05-14T13:33:02.459Z,49.64
2023-05-14T13:35:29.272Z,49.53
2023-05-14T13:37:56.122Z,49.88
2023-05-14T13:40:22.953Z,49.87
2023-05-14T13:42:49.727Z,49.71
2023-05-14T13:45:16.585Z,49.27
2023-05-14T13:47:43.598Z,49.24
2023-05-14T13:50:10.718Z,49.12
2023-05-14T13:52:37.609Z,49.10
2023-05-14T13:55:04.796Z,48.90
2023-05-14T13:57:31.567Z,48.47
2023-05-14T13:59:58.326Z,48.22
2023-05-14T14:02:25.150Z,48.50
2023-05-14T14:04:51.982Z,48.79
2023-05-14T14:07:18.856Z,49.11
2023-05-14T14:09:45.757Z,49.31
2023-05-14T14:12:12.807Z,49.29
2023-05-14T14:14:39.503Z,49.08
2023-05-14T14:17:06.279Z,49.05
2023-05-14T14:19:32.987Z,48.79
2023-05-14T14:21:59.683Z,48.56
2023-05-14T14:24:26.671Z,48.29
2023-05-14T14:26:53.361Z,48.20
2023-05-14T14:29:22.933Z,48.49
2023-05-14T14:31:49.873Z,48.68
2023-05-14T14:34:16.847Z,48.75
2023-05-14T14:36:45.738Z,49.17
2023-05-14T14:39:12.554Z,49.39
2023-05-14T14:41:39.248Z,49.12
2023-05-14T14:44:06.071Z,48.66
2023-05-14T14:46:33.119Z,47.76
2023-05-14T14:49:02.886Z,47.56
2023-05-14T14:51:29.855Z,48.16
2023-05-14T14:53:56.635Z,48.42
2023-05-14T14:56:23.293Z,48.84
2023-05-14T14:58:50.000Z,48.64
2023-05-14T15:01:16.738Z,48.68
2023-05-14T15:03:43.523Z,48.74
2023-05-14T15:06:10.252Z,48.46
2023-05-14T15:08:37.102Z,47.69
2023-05-14T15:11:03.804Z,46.69
2023-05-14T15:13:30.579Z,44.79
2023-05-14T15:15:57.454Z,43.80
2023-05-14T15:18:24.295Z,42.04
2023-05-14T15:20:51.096Z,40.16
2023-05-14T15:23:17.853Z,40.68
2023-05-14T15:25:44.755Z,41.68
2023-05-14T15:28:11.624Z,36.52
2023-05-14T15:30:38.475Z,34.69
2023-05-14T15:33:07.608Z,39.55
2023-05-14T15:35:34.603Z,41.72
2023-05-14T15:38:01.351Z,42.90
2023-05-14T15:40:28.134Z,43.79
2023-05-14T15:42:56.219Z,43.29
2023-05-14T15:45:23.011Z,36.17
2023-05-14T15:47:49.810Z,33.97
2023-05-14T15:50:16.588Z,31.82
2023-05-14T15:52:43.437Z,32.42
2023-05-14T15:55:10.451Z,31.94
2023-05-14T15:57:37.276Z,37.16
2023-05-14T16:00:04.652Z,39.76
2023-05-14T16:02:31.549Z,40.97
2023-05-14T16:04:58.392Z,40.85
2023-05-14T16:07:25.218Z,40.69
2023-05-14T16:09:51.949Z,40.45
2023-05-14T16:12:18.805Z,37.08
2023-05-14T16:14:45.618Z,30.68
2023-05-14T16:17:12.485Z,28.16
2023-05-14T16:19:39.423Z,27.36
2023-05-14T16:22:06.276Z,28.58
2023-05-14T16:24:32.972Z,31.66
2023-05-14T16:26:59.728Z,31.11
2023-05-14T16:29:26.438Z,29.09
2023-05-14T16:31:53.263Z,27.75
2023-05-14T16:37:42.063Z,28.34
2023-05-14T16:40:09.314Z,31.07
2023-05-14T16:42:36.090Z,33.28
2023-05-14T16:45:02.921Z,37.56
2023-05-14T16:47:29.689Z,40.36
2023-05-14T16:49:56.536Z,41.93
2023-05-14T16:52:23.339Z,42.06
2023-05-14T16:54:50.103Z,43.25
2023-05-14T16:57:16.818Z,43.11
2023-05-14T16:59:43.577Z,43.51
2023-05-14T17:02:10.349Z,43.43
2023-05-14T17:04:37.210Z,44.05
2023-05-14T17:07:05.051Z,44.43
2023-05-14T17:09:31.769Z,44.96
2023-05-14T17:11:58.537Z,45.17
2023-05-14T17:14:25.284Z,45.28
2023-05-14T17:16:51.996Z,45.08
2023-05-14T17:19:18.860Z,45.55
2023-05-14T17:21:45.610Z,45.50
2023-05-14T17:24:12.397Z,45.22
2023-05-14T17:26:39.075Z,45.44
2023-05-14T17:29:05.854Z,45.90
2023-05-14T17:31:32.665Z,45.49
2023-05-14T17:33:59.499Z,45.87
2023-05-14T17:36:26.304Z,46.22
2023-05-14T17:38:53.072Z,46.06
2023-05-14T17:41:19.842Z,46.40
2023-05-14T17:43:46.583Z,46.28
2023-05-14T17:46:13.289Z,46.51
2023-05-14T17:48:40.058Z,46.67
2023-05-14T17:51:06.791Z,46.60
2023-05-14T17:53:33.547Z,46.83
2023-05-14T17:56:00.344Z,46.72
2023-05-14T17:58:27.045Z,47.07
2023-05-14T18:00:53.841Z,47.05
2023-05-14T18:03:20.992Z,47.16
2023-05-14T18:05:48.052Z,47.66
2023-05-14T18:08:14.767Z,47.25
2023-05-14T18:10:42.342Z,47.45
2023-05-14T18:13:09.152Z,47.45
2023-05-14T18:15:38.944Z,47.40
2023-05-14T18:18:05.912Z,47.55
2023-05-14T18:20:33.517Z,47.88
2023-05-14T18:23:02.615Z,47.55
2023-05-14T18:25:29.310Z,47.73
2023-05-14T18:27:56.294Z,47.83
2023-05-14T18:30:23.137Z,48.03
2023-05-14T18:32:49.909Z,48.20
2023-05-14T18:35:16.799Z,48.35
2023-05-14T18:37:43.683Z,48.07
2023-05-14T18:40:10.606Z,48.44
2023-05-14T18:42:37.418Z,48.38
2023-05-14T18:45:04.703Z,48.48
2023-05-14T18:47:32.032Z,48.56
2023-05-14T18:49:58.868Z,48.61
2023-05-14T18:52:25.934Z,48.66
2023-05-14T18:54:52.832Z,48.67
2023-05-14T18:57:19.609Z,48.77
2023-05-14T18:59:46.355Z,49.12
2023-05-14T19:02:13.061Z,49.07
2023-05-14T19:32:23.780Z,49.35
2023-05-14T19:34:51.600Z,49.26
2023-05-14T19:37:18.510Z,49.57
2023-05-14T19:39:45.191Z,49.56
2023-05-14T19:42:11.962Z,49.49
2023-05-14T19:44:38.730Z,49.69
2023-05-14T19:47:05.822Z,49.50
2023-05-14T19:49:32.567Z,49.29
2023-05-14T19:51:59.347Z,49.38
2023-05-14T19:54:26.018Z,49.40
2023-05-14T19:56:52.753Z,49.51
2023-05-14T19:59:19.540Z,49.53
2023-05-14T20:01:46.315Z,49.23
2023-05-14T20:04:13.136Z,49.71
2023-05-14T20:06:39.871Z,49.43
2023-05-14T20:09:06.614Z,49.58
2023-05-14T20:11:34.983Z,49.30
2023-05-14T20:14:03.228Z,49.77
2023-05-14T20:16:30.067Z,49.54
2023-05-14T20:18:56.758Z,49.51
2023-05-14T20:21:23.515Z,49.16
2023-05-14T20:23:50.252Z,49.49
2023-05-14T20:26:17.089Z,49.14
2023-05-14T20:28:43.781Z,49.46
2023-05-14T20:31:10.476Z,49.63
2023-05-14T20:33:37.253Z,49.64
2023-05-14T20:36:04.097Z,49.68
2023-05-14T20:38:31.049Z,49.63
2023-05-14T20:40:57.778Z,49.18
2023-05-14T20:43:28.475Z,49.64
2023-05-14T20:45:57.186Z,49.72
2023-05-14T20:48:24.014Z,49.62
